Time;durP1;ratioP1;P1;durP2;ratioP2;P2;SDS_P1;SDS_P2;PMS_P1;PMS_P2;Temp;Humidity;BMP_temperature;BMP_pressure;BME280_temperature;BME280_humidity;BME280_pressure;Samples;Min_cycle;Max_cycle;Signal;HPM_P1;HPM_P2
2024/03/08 00:00:18;;;;;;;34.70;20.37;;;;;;;2.68;63.18;101270.56;5061200;28;20201;-64
2024/03/08 00:02:50;;;;;;;33.27;19.73;;;;;;;2.65;63.17;101270.44;5062992;28;20304;-62
2024/03/08 00:05:19;;;;;;;31.97;19.97;;;;;;;2.67;63.10;101271.38;5061180;28;20232;-62
2024/03/08 00:07:47;;;;;;;32.20;19.43;;;;;;;2.66;63.85;101267.09;5067931;28;20205;-60
2024/03/08 00:10:16;;;;;;;35.53;20.20;;;;;;;2.65;63.48;101267.88;5070232;28;20205;-64
2024/03/08 00:12:46;;;;;;;36.90;20.00;;;;;;;2.65;63.79;101268.78;5069221;28;20757;-64
2024/03/08 00:15:17;;;;;;;35.50;20.60;;;;;;;2.66;63.65;101265.44;5070776;28;20209;-61
2024/03/08 00:17:47;;;;;;;32.97;21.37;;;;;;;2.66;63.25;101269.66;5070318;28;20632;-63
2024/03/08 00:20:17;;;;;;;35.10;20.13;;;;;;;2.69;63.09;101264.69;5070958;28;20772;-63
2024/03/08 00:22:47;;;;;;;34.37;19.90;;;;;;;2.69;63.07;101267.22;5060287;28;20227;-62
2024/03/08 00:25:16;;;;;;;39.43;20.70;;;;;;;2.68;63.22;101265.47;5065266;28;20267;-62
2024/03/08 00:27:44;;;;;;;32.10;17.83;;;;;;;2.67;63.73;101263.75;5064251;28;20208;-62
2024/03/08 00:30:13;;;;;;;36.47;21.50;;;;;;;2.64;64.04;101264.47;5069949;28;20292;-62
2024/03/08 00:32:43;;;;;;;35.40;20.47;;;;;;;2.62;64.11;101267.78;5070421;28;20208;-61
2024/03/08 00:35:12;;;;;;;34.73;20.10;;;;;;;2.54;64.07;101262.41;5070524;28;20232;-63
2024/03/08 00:37:41;;;;;;;41.17;21.57;;;;;;;2.54;64.23;101267.50;5070786;28;20212;-62
2024/03/08 00:40:10;;;;;;;37.23;20.97;;;;;;;2.54;64.07;101254.78;5064043;28;20201;-63
2024/03/08 00:42:39;;;;;;;35.13;20.83;;;;;;;2.54;63.90;101258.97;5065820;28;20711;-62
2024/03/08 00:45:10;;;;;;;42.83;20.83;;;;;;;2.53;63.87;101254.69;5066035;28;20217;-62
2024/03/08 00:47:38;;;;;;;34.33;21.13;;;;;;;2.54;64.89;101259.84;5065399;28;20205;-63
2024/03/08 00:50:09;;;;;;;37.87;21.50;;;;;;;2.53;64.43;101258.09;5064019;28;20259;-63
2024/03/08 00:52:37;;;;;;;38.30;20.93;;;;;;;2.51;64.86;101259.72;5070587;28;20654;-65
2024/03/08 00:55:06;;;;;;;36.40;22.13;;;;;;;2.48;63.96;101251.09;5070951;28;20585;-62
2024/03/08 00:57:34;;;;;;;38.40;21.77;;;;;;;2.46;64.44;101256.09;5067594;28;20201;-62
2024/03/08 01:00:05;;;;;;;39.00;22.13;;;;;;;2.42;64.63;101250.03;5069040;28;20696;-62
2024/03/08 01:02:35;;;;;;;42.27;22.67;;;;;;;2.36;65.47;101248.94;5068894;28;20319;-63
2024/03/08 01:05:05;;;;;;;37.07;22.37;;;;;;;2.34;65.56;101246.31;5062200;28;20210;-63
2024/03/08 01:07:35;;;;;;;38.90;21.97;;;;;;;2.33;64.84;101247.13;5068026;28;20200;-64
2024/03/08 01:10:03;;;;;;;37.23;22.10;;;;;;;2.33;65.76;101257.28;5070356;28;20262;-66
2024/03/08 01:12:31;;;;;;;41.90;22.77;;;;;;;2.34;65.03;101253.94;5068514;28;20213;-63
2024/03/08 01:14:59;;;;;;;41.03;22.63;;;;;;;2.36;64.71;101254.88;5057453;28;20209;-63
2024/03/08 01:17:27;;;;;;;43.07;23.57;;;;;;;2.36;64.76;101251.47;5074762;28;20205;-60
2024/03/08 01:19:55;;;;;;;37.60;21.43;;;;;;;2.36;65.58;101249.81;5070239;28;20659;-64
2024/03/08 01:22:23;;;;;;;40.13;22.90;;;;;;;2.33;65.61;101247.13;5070008;28;20219;-61
2024/03/08 01:24:52;;;;;;;38.17;21.77;;;;;;;2.32;65.38;101239.41;5061572;28;20263;-65
2024/03/08 01:27:21;;;;;;;36.40;21.87;;;;;;;2.27;65.48;101235.81;5065970;28;20197;-64
2024/03/08 01:29:49;;;;;;;36.67;22.23;;;;;;;2.23;66.03;101236.50;5066498;28;20212;-61
2024/03/08 01:32:17;;;;;;;38.93;23.57;;;;;;;2.15;65.41;101238.75;5066224;28;20576;-63
2024/03/08 01:34:45;;;;;;;37.43;21.27;;;;;;;2.09;66.25;101236.78;5064966;28;20506;-62
2024/03/08 01:37:14;;;;;;;44.10;22.70;;;;;;;2.03;65.77;101234.00;5072418;28;20261;-63
2024/03/08 01:39:42;;;;;;;43.27;23.50;;;;;;;2.01;65.60;101229.66;5069932;28;20391;-63
2024/03/08 01:42:13;;;;;;;36.63;22.53;;;;;;;1.98;66.10;101234.59;5069599;28;20364;-63
2024/03/08 01:44:40;;;;;;;42.33;23.80;;;;;;;1.97;65.98;101233.75;5069924;28;20214;-62
2024/03/08 01:47:08;;;;;;;42.70;24.50;;;;;;;1.98;66.21;101234.59;5066179;28;20680;-62
2024/03/08 01:49:37;;;;;;;39.97;23.37;;;;;;;2.00;66.44;101233.88;5072073;28;20208;-62
2024/03/08 01:52:05;;;;;;;41.83;24.10;;;;;;;2.03;66.55;101234.00;5052927;28;20639;-65
2024/03/08 01:54:32;;;;;;;41.50;23.50;;;;;;;2.03;66.80;101230.59;5060987;28;20206;-64
2024/03/08 01:57:00;;;;;;;43.77;24.00;;;;;;;2.04;66.93;101229.78;5065526;28;20722;-62
2024/03/08 01:59:30;;;;;;;42.27;22.83;;;;;;;2.03;66.22;101230.59;5073377;28;20205;-62
2024/03/08 02:02:03;;;;;;;39.60;22.43;;;;;;;2.03;66.97;101226.38;5073116;28;20205;-61
2024/03/08 02:04:31;;;;;;;41.53;23.80;;;;;;;2.01;66.48;101222.03;5058385;28;20221;-64
2024/03/08 02:07:00;;;;;;;42.47;23.37;;;;;;;2.00;66.99;101227.94;5066568;28;20293;-65
2024/03/08 02:09:28;;;;;;;37.90;22.13;;;;;;;1.99;67.20;101221.09;5072388;28;20251;-62
2024/03/08 02:11:58;;;;;;;36.10;21.57;;;;;;;1.98;66.29;101225.31;5068953;28;20206;-61
2024/03/08 02:14:26;;;;;;;42.00;23.30;;;;;;;1.97;67.31;101212.53;5078619;28;20299;-63
2024/03/08 02:16:57;;;;;;;42.07;22.97;;;;;;;1.96;66.58;101213.38;5073400;28;20717;-61
2024/03/08 02:19:25;;;;;;;38.50;22.17;;;;;;;1.94;66.94;101219.22;5070623;28;20244;-62
2024/03/08 02:21:55;;;;;;;44.23;23.63;;;;;;;1.94;66.07;101219.22;5072718;28;20665;-62
2024/03/08 02:24:23;;;;;;;44.03;23.73;;;;;;;1.89;65.93;101215.63;5072967;28;20677;-65
2024/03/08 02:26:51;;;;;;;37.63;22.60;;;;;;;1.87;66.79;101212.16;5062795;28;20193;-62
2024/03/08 02:29:19;;;;;;;39.47;22.37;;;;;;;1.85;66.55;101211.22;5071200;28;20282;-62
2024/03/08 02:31:48;;;;;;;42.10;23.13;;;;;;;1.84;66.59;101212.03;5071987;28;20194;-63
2024/03/08 02:34:16;;;;;;;47.73;24.33;;;;;;;1.86;66.97;101215.50;5072935;28;20676;-61
2024/03/08 02:36:43;;;;;;;38.13;22.20;;;;;;;1.86;66.77;101210.41;5070044;28;20674;-63
2024/03/08 02:39:13;;;;;;;40.03;22.77;;;;;;;1.85;66.64;101218.84;5072165;28;20255;-63
2024/03/08 02:41:42;;;;;;;42.00;23.43;;;;;;;1.84;67.44;101209.50;5070203;28;20284;-63
2024/03/08 02:44:12;;;;;;;39.23;21.63;;;;;;;1.83;66.90;101210.28;5064565;28;20244;-63
2024/03/08 02:46:39;;;;;;;38.57;22.23;;;;;;;1.81;66.61;101211.91;5061456;28;20213;-62
2024/03/08 02:49:08;;;;;;;43.93;23.03;;;;;;;1.80;66.69;101205.06;5072813;28;20197;-63
2024/03/08 02:51:36;;;;;;;40.70;23.63;;;;;;;1.76;67.72;101208.28;5072530;28;20658;-61
2024/03/08 02:54:04;;;;;;;43.13;24.17;;;;;;;1.75;67.34;101205.69;5072539;28;20741;-61
2024/03/08 02:56:35;;;;;;;39.20;22.03;;;;;;;1.74;67.95;101203.97;5071403;28;20198;-62
2024/03/08 02:59:03;;;;;;;40.03;23.97;;;;;;;1.72;67.77;101200.47;5072961;28;20607;-63
2024/03/08 03:01:31;;;;;;;42.07;23.83;;;;;;;1.72;67.45;101200.47;5063588;28;20202;-61
2024/03/08 03:03:59;;;;;;;40.10;23.43;;;;;;;1.68;67.42;101195.25;5064389;28;20562;-61
2024/03/08 03:06:27;;;;;;;48.17;24.63;;;;;;;1.67;66.93;101193.53;5071729;28;20305;-65
2024/03/08 03:08:57;;;;;;;42.20;23.53;;;;;;;1.62;68.01;101195.00;5071367;28;20245;-62
2024/03/08 03:11:25;;;;;;;38.80;22.63;;;;;;;1.60;67.42;101199.16;5072092;28;20202;-62
2024/03/08 03:13:55;;;;;;;40.63;23.33;;;;;;;1.57;68.23;101195.59;5071964;28;20265;-63
2024/03/08 03:16:24;;;;;;;44.30;24.77;;;;;;;1.54;68.20;101205.63;5063979;28;20201;-62
2024/03/08 03:18:52;;;;;;;42.60;23.83;;;;;;;1.52;67.77;101203.03;5068179;28;20698;-62
2024/03/08 03:21:20;;;;;;;44.83;23.67;;;;;;;1.50;68.81;101197.00;5064205;28;20216;-62
2024/03/08 03:23:48;;;;;;;40.47;23.43;;;;;;;1.49;68.20;101202.03;5070422;28;20208;-65
2024/03/08 03:26:17;;;;;;;43.77;24.63;;;;;;;1.47;68.00;101206.16;5069106;28;20263;-64
2024/03/08 03:28:45;;;;;;;44.90;23.63;;;;;;;1.44;67.94;101202.69;5072250;28;20552;-62
2024/03/08 03:31:15;;;;;;;41.60;23.57;;;;;;;1.44;68.34;101200.16;5071796;28;20193;-62
2024/03/08 03:33:42;;;;;;;46.70;24.00;;;;;;;1.43;68.84;101195.84;5058063;28;20651;-64
2024/03/08 03:36:11;;;;;;;42.67;23.73;;;;;;;1.41;68.59;101200.03;5071500;28;20231;-63
2024/03/08 03:38:39;;;;;;;41.57;23.20;;;;;;;1.40;68.02;101198.28;5064609;28;20617;-65
2024/03/08 03:41:10;;;;;;;39.60;22.80;;;;;;;1.37;68.84;101200.69;5069277;28;20198;-61
2024/03/08 03:43:38;;;;;;;41.77;22.87;;;;;;;1.33;68.47;101201.34;5067019;28;20550;-64
2024/03/08 03:46:07;;;;;;;37.37;22.17;;;;;;;1.33;68.59;101198.81;5070856;28;20213;-63
2024/03/08 03:48:37;;;;;;;41.23;22.60;;;;;;;1.33;69.29;101188.66;5065008;28;20721;-62
2024/03/08 03:51:05;;;;;;;37.87;21.97;;;;;;;1.35;68.89;101183.63;5070945;28;20253;-61
2024/03/08 03:53:33;;;;;;;41.17;23.43;;;;;;;1.34;68.72;101187.84;5070640;28;20237;-61
2024/03/08 03:56:01;;;;;;;38.17;21.80;;;;;;;1.33;68.21;101185.25;5070983;28;20641;-62
2024/03/08 03:58:29;;;;;;;38.17;22.47;;;;;;;1.31;69.11;101187.72;5066555;28;20209;-64
2024/03/08 04:00:57;;;;;;;43.17;23.63;;;;;;;1.28;69.15;101181.63;5072745;28;20194;-63
2024/03/08 04:03:25;;;;;;;36.80;22.23;;;;;;;1.24;68.65;101185.69;5062086;28;20202;-63
2024/03/08 04:05:54;;;;;;;39.63;22.60;;;;;;;1.21;68.77;101177.94;5060045;28;20320;-63
2024/03/08 04:08:23;;;;;;;38.70;21.87;;;;;;;1.25;69.21;101184.88;5069835;28;20201;-64
2024/03/08 04:10:51;;;;;;;45.20;24.30;;;;;;;1.24;69.12;101178.09;5066197;28;20210;-63
2024/03/08 04:13:20;;;;;;;40.67;23.67;;;;;;;1.26;69.14;101175.63;5069461;28;20728;-63
2024/03/08 04:15:48;;;;;;;41.03;22.57;;;;;;;1.28;68.88;101181.63;5064490;28;20226;-63
2024/03/08 04:18:18;;;;;;;40.20;22.67;;;;;;;1.29;69.41;101176.63;5068411;28;20284;-61
2024/03/08 04:20:47;;;;;;;40.50;22.80;;;;;;;1.29;68.77;101179.19;5071020;28;20212;-62
2024/03/08 04:23:17;;;;;;;41.67;22.13;;;;;;;1.26;68.91;101171.41;5065667;28;20214;-63
2024/03/08 04:25:46;;;;;;;44.87;24.67;;;;;;;1.24;69.59;101167.94;5070304;28;20252;-61
2024/03/08 04:28:14;;;;;;;46.87;24.33;;;;;;;1.25;69.29;101179.81;5071050;28;20205;-61
2024/03/08 04:30:41;;;;;;;43.17;23.87;;;;;;;1.25;69.32;101176.41;5070859;28;20628;-63
2024/03/08 04:33:11;;;;;;;43.93;23.53;;;;;;;1.22;69.14;101177.16;5068929;28;20568;-66
2024/03/08 04:35:39;;;;;;;44.03;23.77;;;;;;;1.19;69.42;101171.94;5064743;28;20740;-62
2024/03/08 04:38:07;;;;;;;46.57;23.73;;;;;;;1.19;68.82;101169.41;5067049;28;20252;-61
2024/03/08 04:40:36;;;;;;;41.47;23.23;;;;;;;1.16;69.85;101175.22;5069353;28;20213;-61
2024/03/08 04:43:05;;;;;;;40.47;22.53;;;;;;;1.16;69.16;101166.72;5070352;28;20592;-63
2024/03/08 04:45:33;;;;;;;45.50;23.33;;;;;;;1.12;69.39;101168.25;5069568;28;20666;-62
2024/03/08 04:48:01;;;;;;;39.93;23.67;;;;;;;1.12;69.34;101175.00;5069826;28;20209;-61
2024/03/08 04:50:32;;;;;;;44.00;24.40;;;;;;;1.07;69.28;101166.31;5068429;28;20998;-63
2024/03/08 04:53:00;;;;;;;44.27;24.23;;;;;;;1.07;69.56;101173.91;5065515;28;20205;-63
2024/03/08 04:55:29;;;;;;;45.07;23.93;;;;;;;1.08;70.03;101165.53;5075681;28;20209;-62
2024/03/08 04:57:58;;;;;;;39.17;22.73;;;;;;;1.08;69.66;101170.59;5070396;28;20662;-62
2024/03/08 05:00:26;;;;;;;42.03;24.30;;;;;;;1.11;69.50;101178.34;5069615;28;20213;-61
2024/03/08 05:02:54;;;;;;;42.07;23.90;;;;;;;1.09;70.08;101170.66;5070641;28;20259;-61
2024/03/08 05:05:22;;;;;;;40.93;23.87;;;;;;;1.11;70.12;101179.22;5070794;28;20633;-62
2024/03/08 05:07:51;;;;;;;43.10;23.83;;;;;;;1.10;70.23;101172.38;5064543;28;20214;-65
2024/03/08 05:10:18;;;;;;;46.53;24.33;;;;;;;1.09;69.95;101172.31;5070045;28;20232;-65
2024/03/08 05:12:47;;;;;;;41.57;23.17;;;;;;;1.10;69.64;101172.38;5058775;28;20237;-61
2024/03/08 05:15:16;;;;;;;47.83;24.67;;;;;;;1.11;69.56;101170.75;5070384;28;20205;-63
2024/03/08 05:17:44;;;;;;;47.40;25.40;;;;;;;1.13;70.36;101172.53;5067944;28;20205;-62
2024/03/08 05:20:13;;;;;;;48.27;25.80;;;;;;;1.13;69.72;101172.53;5072686;28;20197;-61
2024/03/08 05:22:41;;;;;;;44.30;24.53;;;;;;;1.11;69.92;101164.00;5074549;28;20212;-63
2024/03/08 05:25:10;;;;;;;42.50;24.77;;;;;;;1.17;70.05;101178.59;5070656;28;20620;-63
2024/03/08 05:27:38;;;;;;;43.13;23.90;;;;;;;1.16;70.68;101167.59;5069946;28;20268;-62
2024/03/08 05:30:07;;;;;;;45.07;24.47;;;;;;;1.18;70.14;101165.13;5069839;28;20212;-64
2024/03/08 05:32:37;;;;;;;46.83;23.97;;;;;;;1.19;69.77;101172.81;5060139;28;20622;-63
2024/03/08 05:35:07;;;;;;;49.30;23.77;;;;;;;1.20;70.42;101171.13;5064385;28;20885;-62
2024/03/08 05:37:35;;;;;;;43.80;25.00;;;;;;;1.19;70.26;101169.41;5072571;28;20685;-61
2024/03/08 05:40:08;;;;;;;45.20;24.67;;;;;;;1.23;69.99;101172.94;5070508;28;20558;-64
2024/03/08 05:42:42;;;;;;;43.17;24.20;;;;;;;1.26;70.88;101176.50;5073228;28;20287;-61
2024/03/08 05:45:11;;;;;;;52.17;25.37;;;;;;;1.27;70.22;101168.06;5074029;28;20592;-63
2024/03/08 05:47:42;;;;;;;42.67;23.70;;;;;;;1.29;70.66;101173.19;5066300;28;20674;-62
2024/03/08 05:50:11;;;;;;;41.27;24.80;;;;;;;1.31;70.60;101167.41;5067308;28;20205;-63
2024/03/08 05:52:39;;;;;;;46.87;23.93;;;;;;;1.34;70.53;101167.53;5057436;28;20571;-63
2024/03/08 05:55:09;;;;;;;47.13;25.63;;;;;;;1.38;70.43;101171.09;5076295;28;20304;-61
2024/03/08 05:57:39;;;;;;;43.60;25.73;;;;;;;1.41;70.26;101167.00;5073475;28;20201;-63
2024/03/08 06:00:10;;;;;;;45.30;23.87;;;;;;;1.43;70.06;101170.47;5073498;28;20198;-65
2024/03/08 06:02:40;;;;;;;47.03;25.47;;;;;;;1.45;70.23;101163.78;5070181;28;20597;-62
2024/03/08 06:05:11;;;;;;;46.00;24.23;;;;;;;1.50;70.84;101163.97;5071718;28;20228;-62
2024/03/08 06:07:40;;;;;;;46.10;24.27;;;;;;;1.55;69.81;101160.00;5058965;28;20305;-63
2024/03/08 06:10:12;;;;;;;43.00;24.17;;;;;;;1.61;70.59;101166.97;5067440;28;20818;-62
2024/03/08 06:12:41;;;;;;;51.13;25.40;;;;;;;1.68;70.13;101168.97;5071131;28;20233;-62
2024/03/08 06:15:14;;;;;;;45.93;24.13;;;;;;;1.72;69.96;101175.94;5070605;28;20212;-63
2024/03/08 06:17:42;;;;;;;43.00;25.30;;;;;;;1.78;69.45;101175.34;5061767;28;20618;-63
2024/03/08 06:20:12;;;;;;;39.77;24.07;;;;;;;1.85;70.20;101178.19;5071444;28;21729;-62
2024/03/08 06:22:41;;;;;;;48.63;24.13;;;;;;;1.90;69.92;101171.63;5071281;28;20212;-62
2024/03/08 06:25:11;;;;;;;53.00;27.43;;;;;;;1.97;69.89;101170.19;5070429;28;20205;-63
2024/03/08 06:27:38;;;;;;;46.17;25.13;;;;;;;2.03;69.79;101172.16;5078016;28;20212;-63
2024/03/08 06:30:09;;;;;;;43.87;24.40;;;;;;;2.10;69.93;101175.00;5072990;28;20638;-64
2024/03/08 06:32:37;;;;;;;40.53;23.73;;;;;;;2.16;69.58;101174.34;5073473;28;20338;-66
2024/03/08 06:35:07;;;;;;;46.33;23.17;;;;;;;2.22;69.67;101173.75;5061808;28;20205;-62
2024/03/08 06:37:36;;;;;;;46.90;24.93;;;;;;;2.32;69.41;101171.66;5064765;28;20201;-63
2024/03/08 06:40:07;;;;;;;44.20;24.33;;;;;;;2.39;69.02;101176.16;5066655;28;20201;-64
2024/03/08 06:42:36;;;;;;;41.50;24.03;;;;;;;2.48;69.35;101173.09;5065051;28;20613;-61
2024/03/08 06:45:05;;;;;;;41.83;22.70;;;;;;;2.55;69.32;101156.41;5071851;28;20251;-64
2024/03/08 06:47:34;;;;;;;37.47;22.33;;;;;;;2.66;68.99;101172.97;5072445;28;20239;-63
2024/03/08 06:50:03;;;;;;;40.73;23.30;;;;;;;2.75;68.23;101168.22;5072749;28;20231;-62
2024/03/08 06:52:32;;;;;;;39.97;22.40;;;;;;;2.94;69.01;101167.22;5069530;28;20197;-68
2024/03/08 06:55:05;;;;;;;41.23;23.10;;;;;;;3.22;68.33;101161.47;5060082;28;20220;-64
2024/03/08 06:57:33;;;;;;;36.17;20.33;;;;;;;3.57;66.90;101162.72;5071038;28;20197;-64
2024/03/08 07:00:04;;;;;;;34.13;20.03;;;;;;;3.94;66.28;101161.44;5067297;28;20203;-64
2024/03/08 07:02:35;;;;;;;33.90;19.87;;;;;;;4.33;65.10;101160.97;5065013;28;20304;-63
2024/03/08 07:05:04;;;;;;;37.03;19.83;;;;;;;4.69;64.55;101161.25;5064505;28;20213;-65
2024/03/08 07:07:33;;;;;;;37.30;19.43;;;;;;;5.05;63.39;101158.06;5069860;28;20356;-64
2024/03/08 07:10:03;;;;;;;32.37;19.17;;;;;;;5.44;62.49;101159.97;5069296;28;20302;-62
2024/03/08 07:12:31;;;;;;;34.87;18.53;;;;;;;5.80;61.40;101145.59;5071357;28;20212;-62
2024/03/08 07:14:59;;;;;;;29.77;17.43;;;;;;;6.18;59.62;101155.09;5066330;28;20260;-63
2024/03/08 07:17:27;;;;;;;24.30;15.93;;;;;;;6.53;58.31;101140.56;5069539;28;20208;-62
2024/03/08 07:19:55;;;;;;;24.30;15.33;;;;;;;6.91;57.52;101149.06;5073390;28;20255;-67
2024/03/08 07:22:23;;;;;;;27.57;14.77;;;;;;;7.24;56.16;101141.19;5072783;28;20558;-65
2024/03/08 07:25:10;;;;;;;26.50;15.40;;;;;;;7.66;54.72;101142.00;5072170;28;20616;-65
2024/03/08 07:27:40;;;;;;;27.17;15.80;;;;;;;8.04;52.74;101137.50;5070139;28;20236;-66
2024/03/08 07:30:10;;;;;;;29.90;15.90;;;;;;;8.38;52.29;101136.34;5069462;28;20201;-64
2024/03/08 07:32:37;;;;;;;24.13;15.70;;;;;;;8.67;51.63;101125.63;5069568;28;20275;-63
2024/03/08 07:35:06;;;;;;;23.50;14.23;;;;;;;9.10;49.95;101133.91;5069396;28;20554;-64
2024/03/08 07:37:34;;;;;;;28.63;15.30;;;;;;;9.70;48.94;101131.97;5067185;28;20205;-64
2024/03/08 07:40:02;;;;;;;21.90;13.93;;;;;;;10.48;47.87;101133.47;5065487;28;20208;-64
2024/03/08 07:42:30;;;;;;;29.17;15.63;;;;;;;11.41;45.71;101117.53;5071918;28;20225;-66
2024/03/08 07:44:59;;;;;;;23.27;14.30;;;;;;;12.44;43.34;101122.75;5069616;28;20650;-65
2024/03/08 07:47:27;;;;;;;24.77;14.13;;;;;;;13.56;40.89;101122.31;5072041;28;20705;-65
2024/03/08 07:49:55;;;;;;;24.57;15.13;;;;;;;14.69;37.83;101110.94;5063039;28;20560;-64
2024/03/08 07:52:26;;;;;;;22.85;13.13;;;;;;;15.76;34.82;101114.75;5071329;28;20229;-65
2024/03/08 07:54:54;;;;;;;22.23;12.95;;;;;;;16.56;32.38;101114.19;5066593;28;20546;-65
2024/03/08 07:57:22;;;;;;;22.02;12.90;;;;;;;17.08;30.57;101097.53;5074779;28;20197;-65
2024/03/08 07:59:50;;;;;;;17.73;12.32;;;;;;;17.47;28.99;101099.31;5068317;28;20201;-66
2024/03/08 08:02:20;;;;;;;17.50;12.25;;;;;;;17.72;28.41;101100.44;5065947;28;20530;-63
2024/03/08 08:04:48;;;;;;;16.00;11.70;;;;;;;17.96;27.78;101103.34;5059102;28;20205;-64
2024/03/08 08:07:16;;;;;;;20.02;12.43;;;;;;;18.10;27.30;101099.50;5060177;28;20612;-64
2024/03/08 08:09:44;;;;;;;17.83;11.52;;;;;;;18.20;26.98;101101.88;5065493;28;20198;-64
2024/03/08 08:12:12;;;;;;;14.35;10.98;;;;;;;18.35;26.63;101101.47;5066407;28;20616;-67
2024/03/08 08:14:41;;;;;;;18.70;11.20;;;;;;;18.50;26.15;101097.59;5070745;28;20439;-67
2024/03/08 08:17:09;;;;;;;14.10;9.52;;;;;;;18.65;25.62;101089.31;5070334;28;20208;-63
2024/03/08 08:19:38;;;;;;;17.88;10.45;;;;;;;18.65;25.18;101089.31;5063684;28;20228;-65
2024/03/08 08:22:08;;;;;;;15.57;9.82;;;;;;;18.20;25.10;101094.06;5066186;28;20654;-67
2024/03/08 08:24:37;;;;;;;12.30;8.85;;;;;;;17.67;25.61;101099.66;5069440;28;20205;-68
2024/03/08 08:27:05;;;;;;;9.50;6.85;;;;;;;16.95;25.93;101096.09;5070449;28;20251;-68
2024/03/08 08:29:33;;;;;;;9.73;7.45;;;;;;;16.35;26.43;101089.44;5070733;28;20686;-67
2024/03/08 08:32:01;;;;;;;11.68;7.35;;;;;;;15.90;26.93;101094.56;5059726;28;20669;-68
2024/03/08 08:34:31;;;;;;;11.07;8.10;;;;;;;15.53;27.04;101090.81;5069460;28;20208;-66
2024/03/08 08:37:00;;;;;;;15.98;8.48;;;;;;;15.13;27.15;101088.78;5068335;28;20216;-67
2024/03/08 08:39:28;;;;;;;14.63;9.40;;;;;;;14.64;28.07;101085.06;5069323;28;20259;-68
2024/03/08 08:41:57;;;;;;;18.37;9.90;;;;;;;14.08;28.78;101096.00;5065159;28;20219;-69
2024/03/08 08:44:25;;;;;;;16.17;10.20;;;;;;;13.66;29.88;101095.47;5063362;28;20209;-70
2024/03/08 08:46:54;;;;;;;12.47;9.27;;;;;;;13.14;30.29;101099.22;5070619;28;20295;-71
2024/03/08 08:49:32;;;;;;;14.83;8.93;;;;;;;12.80;30.96;101096.78;5070869;28;20307;-68
2024/03/08 08:52:03;;;;;;;15.97;9.33;;;;;;;12.70;31.29;101092.53;5069259;28;20201;-68
2024/03/08 08:54:44;;;;;;;13.27;8.67;;;;;;;12.39;30.94;101086.56;5070193;28;20204;-69
2024/03/08 08:57:17;;;;;;;15.27;9.00;;;;;;;12.05;31.66;101086.63;5062354;28;20285;-74
2024/03/08 08:59:45;;;;;;;13.60;8.37;;;;;;;11.68;31.96;101082.31;5070689;28;20224;-68
2024/03/08 09:02:16;;;;;;;13.40;8.30;;;;;;;11.53;32.78;101086.59;5067911;28;20201;-70
2024/03/08 09:04:45;;;;;;;12.80;8.33;;;;;;;11.62;32.96;101088.31;5067312;28;20197;-68
2024/03/08 09:07:15;;;;;;;12.70;9.10;;;;;;;11.69;32.36;101081.44;5068861;28;20217;-70
2024/03/08 09:09:43;;;;;;;13.53;9.63;;;;;;;11.80;32.71;101079.72;5075287;28;20577;-69
2024/03/08 09:12:13;;;;;;;13.43;8.80;;;;;;;11.91;32.81;101087.50;5074032;28;20201;-72
2024/03/08 09:14:41;;;;;;;12.30;7.37;;;;;;;11.86;32.73;101082.34;5070657;28;20228;-71
2024/03/08 09:17:09;;;;;;;12.13;8.63;;;;;;;11.65;32.53;101079.72;5070651;28;20243;-72
2024/03/08 09:19:37;;;;;;;12.30;8.90;;;;;;;11.24;33.02;101083.97;5074698;28;20646;-68
2024/03/08 09:22:05;;;;;;;11.37;8.43;;;;;;;10.69;33.85;101075.19;5072121;28;20278;-68
2024/03/08 09:24:34;;;;;;;12.13;7.77;;;;;;;10.27;34.49;101084.38;5072210;28;20209;-69
2024/03/08 09:27:03;;;;;;;14.77;8.43;;;;;;;9.92;35.06;101079.81;5070322;28;20220;-67
2024/03/08 09:29:30;;;;;;;16.40;7.80;;;;;;;9.58;35.85;101081.25;5069088;28;20292;-69
2024/03/08 09:31:59;;;;;;;12.57;7.77;;;;;;;9.31;36.01;101079.25;5066417;28;20212;-69
2024/03/08 09:34:26;;;;;;;10.33;7.67;;;;;;;9.03;36.87;101080.69;5069276;28;20209;-70
2024/03/08 09:37:05;;;;;;;16.17;8.40;;;;;;;8.85;37.33;101079.63;5071487;28;20201;-70
2024/03/08 09:39:33;;;;;;;14.93;9.50;;;;;;;8.67;37.56;101075.09;5066358;28;20251;-67
2024/03/08 09:42:03;;;;;;;12.80;8.57;;;;;;;8.35;38.02;101073.78;5067791;28;20259;-68
2024/03/08 09:44:31;;;;;;;17.50;8.40;;;;;;;8.10;38.82;101073.44;5073624;28;20206;-69
2024/03/08 09:47:02;;;;;;;13.37;8.17;;;;;;;7.95;39.74;101073.19;5059961;28;20202;-68
2024/03/08 09:49:30;;;;;;;12.10;7.87;;;;;;;7.97;40.14;101077.50;5061025;28;20228;-68
2024/03/08 09:51:58;;;;;;;12.80;8.53;;;;;;;7.98;39.58;101075.81;5068427;28;20208;-68
2024/03/08 09:54:27;;;;;;;14.17;8.50;;;;;;;7.97;39.60;101077.50;5069924;28;20239;-68
2024/03/08 09:56:56;;;;;;;16.50;8.50;;;;;;;7.91;40.71;101071.41;5073956;28;20202;-70
2024/03/08 09:59:44;;;;;;;12.80;8.10;;;;;;;7.89;41.46;101062.84;5074787;28;20623;-67
2024/03/08 10:02:15;;;;;;;13.93;8.10;;;;;;;7.89;41.12;101067.97;5073509;28;20205;-70
2024/03/08 10:04:46;;;;;;;18.13;11.07;;;;;;;7.95;41.63;101068.94;5072643;28;20719;-71
2024/03/08 10:07:14;;;;;;;14.20;8.80;;;;;;;8.00;41.27;101071.56;5068225;28;20808;-69
2024/03/08 10:09:47;;;;;;;12.30;8.40;;;;;;;8.10;41.38;101063.19;5073038;28;20213;-66
2024/03/08 10:12:16;;;;;;;16.47;8.47;;;;;;;8.25;40.99;101065.09;5072449;28;20201;-68
2024/03/08 10:14:46;;;;;;;15.50;8.73;;;;;;;8.42;40.58;101066.22;5077917;28;20212;-69
2024/03/08 10:17:14;;;;;;;12.03;8.63;;;;;;;8.66;40.22;101063.13;5073148;28;20971;-66
2024/03/08 10:19:50;;;;;;;14.57;8.90;;;;;;;8.87;38.71;101064.19;5070997;28;20293;-72
2024/03/08 10:22:19;;;;;;;13.57;8.43;;;;;;;8.98;37.53;101056.63;5074531;28;20215;-69
2024/03/08 10:24:47;;;;;;;15.17;8.63;;;;;;;9.18;37.69;101050.00;5069141;28;20212;-67
2024/03/08 10:27:17;;;;;;;11.53;7.90;;;;;;;9.36;37.29;101054.47;5064447;28;20654;-70
2024/03/08 10:29:51;;;;;;;13.93;8.50;;;;;;;9.48;36.73;101049.44;5071359;28;20359;-71
2024/03/08 10:32:20;;;;;;;14.23;8.67;;;;;;;9.76;37.64;101040.25;5070918;28;20312;-69
2024/03/08 10:34:50;;;;;;;13.80;9.00;;;;;;;9.95;36.05;101046.38;5073114;28;20210;-69
2024/03/08 10:37:24;;;;;;;14.60;8.13;;;;;;;10.03;36.29;101042.13;5071455;28;20269;-72
2024/03/08 10:40:10;;;;;;;15.97;8.50;;;;;;;10.04;35.50;101043.00;5067452;28;20189;-71
2024/03/08 10:42:42;;;;;;;13.17;8.37;;;;;;;9.88;35.52;101040.31;5071701;28;20206;-72
2024/03/08 10:45:21;;;;;;;15.87;8.53;;;;;;;9.66;36.32;101041.88;5063896;28;20297;-71
2024/03/08 10:47:58;;;;;;;16.73;9.13;;;;;;;9.36;36.46;101042.47;5071568;28;20565;-69
2024/03/08 10:50:28;;;;;;;12.53;8.60;;;;;;;8.85;36.47;101032.50;5071959;28;20262;-69
2024/03/08 10:53:01;;;;;;;17.23;8.83;;;;;;;8.58;37.30;101039.03;5071385;28;20208;-70
2024/03/08 10:55:29;;;;;;;13.63;9.00;;;;;;;8.37;38.22;101038.72;5071976;28;20354;-67
2024/03/08 10:57:57;;;;;;;13.47;8.67;;;;;;;8.34;38.45;101041.25;5066118;28;20201;-66
2024/03/08 11:00:26;;;;;;;14.00;9.30;;;;;;;8.52;38.78;101032.97;5070204;28;20203;-64
2024/03/08 11:02:55;;;;;;;14.07;8.27;;;;;;;8.82;38.28;101027.31;5070930;28;20255;-64
2024/03/08 11:05:35;;;;;;;18.63;9.27;;;;;;;9.15;37.48;101021.69;5071991;28;20566;-67
2024/03/08 11:08:04;;;;;;;13.50;8.77;;;;;;;9.47;37.25;101023.69;5070692;28;20209;-65
2024/03/08 11:10:32;;;;;;;14.00;8.87;;;;;;;9.68;36.69;101019.59;5070322;28;20231;-64
2024/03/08 11:13:01;;;;;;;17.00;10.10;;;;;;;9.97;35.29;101016.34;5062694;28;20964;-69
2024/03/08 11:15:31;;;;;;;11.87;8.07;;;;;;;10.01;35.10;101019.78;5065313;28;20213;-68
2024/03/08 11:18:00;;;;;;;13.03;9.00;;;;;;;10.25;35.53;101011.38;5073512;28;20250;-64
2024/03/08 11:20:32;;;;;;;15.43;8.60;;;;;;;10.57;35.02;101004.69;5064832;28;20233;-62
2024/03/08 11:23:02;;;;;;;14.57;9.07;;;;;;;10.90;34.66;101003.06;5070932;28;20293;-64
2024/03/08 11:25:36;;;;;;;15.93;9.10;;;;;;;11.16;34.12;101008.28;5070051;28;20197;-65